Time;durP1;ratioP1;P1;durP2;ratioP2;P2;SDS_P1;SDS_P2;PMS_P1;PMS_P2;Temp;Humidity;BMP_temperature;BMP_pressure;BME280_temperature;BME280_humidity;BME280_pressure;Samples;Min_cycle;Max_cycle;Signal;HPM_P1;HPM_P2
2023/08/24 00:01:23;;;;;;;7.95;5.20;;;14.30;99.90;;;-144.05;86.79;56891.31;4995960;28;20058;-83
2023/08/24 00:03:49;;;;;;;7.22;5.32;;;17.90;99.90;;;-144.05;86.77;56906.19;4996015;28;20066;-83
2023/08/24 00:06:16;;;;;;;8.70;5.65;;;18.10;99.90;;;-144.05;86.94;56880.69;5012446;28;20026;-83
2023/08/24 00:08:43;;;;;;;10.35;5.78;;;16.40;99.90;;;-144.05;86.88;56916.81;4995564;28;20041;-82
2023/08/24 00:11:14;;;;;;;12.45;5.53;;;17.70;99.90;;;-144.05;87.09;56872.19;5013915;28;20045;-83
2023/08/24 00:13:49;;;;;;;9.32;5.57;;;16.30;99.90;;;-144.05;87.30;56891.31;5014317;28;20054;-84
2023/08/24 00:16:19;;;;;;;8.15;5.32;;;16.30;99.90;;;-144.05;87.13;56921.06;5016165;28;20030;-85
2023/08/24 00:18:46;;;;;;;6.75;5.40;;;;;;;-144.05;87.31;56904.06;5014784;28;20493;-84
2023/08/24 00:21:22;;;;;;;10.95;6.10;;;17.60;99.90;;;-144.05;87.42;56925.28;5014922;28;20117;-84
2023/08/24 00:23:50;;;;;;;9.43;6.40;;;17.40;99.90;;;-144.05;87.80;56891.31;5014664;28;20021;-84
2023/08/24 00:26:19;;;;;;;9.20;6.88;;;17.20;99.90;;;-144.05;87.76;56901.94;4996595;28;20040;-83
2023/08/24 00:28:45;;;;;;;9.85;5.10;;;17.40;99.90;;;-144.05;87.85;56906.19;5013733;28;20034;-84
2023/08/24 00:31:12;;;;;;;7.47;4.85;;;;;;;-144.05;87.92;56893.44;4996610;28;20409;-85
2023/08/24 00:33:39;;;;;;;6.55;4.78;;;17.30;99.90;;;-144.05;88.26;56872.19;5014019;28;20033;-82
2023/08/24 00:36:06;;;;;;;8.90;5.93;;;17.10;99.90;;;-144.05;88.23;56882.81;4995943;28;20041;-84
2023/08/24 00:38:32;;;;;;;8.40;5.60;;;17.10;99.90;;;-144.05;88.30;56878.56;5013552;28;20018;-83
2023/08/24 00:40:59;;;;;;;9.63;6.03;;;17.30;99.90;;;-144.05;88.35;56906.19;5011770;28;20176;-85
2023/08/24 00:43:28;;;;;;;9.05;5.78;;;17.10;99.90;;;-144.05;88.50;56867.94;5011876;28;20026;-83
2023/08/24 00:46:01;;;;;;;8.70;5.93;;;16.00;99.90;;;-144.05;88.40;56884.94;4995844;28;20041;-83
2023/08/24 00:48:29;;;;;;;11.20;5.75;;;16.90;99.90;;;-144.05;88.45;56895.56;5012723;28;20088;-82
2023/08/24 00:50:59;;;;;;;9.80;6.05;;;15.90;99.90;;;-144.05;88.66;56895.56;4995897;28;20033;-84
2023/08/24 00:53:27;;;;;;;8.48;5.50;;;16.90;99.90;;;-144.05;88.69;56887.06;5013413;28;20022;-84
2023/08/24 00:55:54;;;;;;;9.15;5.53;;;16.70;99.90;;;-144.05;88.70;56872.19;5013532;28;20058;-83
2023/08/24 00:58:21;;;;;;;9.73;6.53;;;17.50;99.90;;;-144.05;88.71;56910.44;5013498;28;20026;-83
2023/08/24 01:00:52;;;;;;;14.10;6.65;;;15.80;99.90;;;-144.05;88.96;56895.56;5013383;28;20041;-83
2023/08/24 01:03:18;;;;;;;7.00;5.72;;;16.90;99.90;;;-144.05;89.18;56895.56;5016563;28;20033;-83
2023/08/24 01:05:45;;;;;;;9.57;6.18;;;15.90;99.90;;;-144.05;89.26;56878.56;5017769;28;20037;-84
2023/08/24 01:08:13;;;;;;;8.90;6.43;;;17.60;99.90;;;-144.05;89.18;56899.81;5016971;28;20061;-83
2023/08/24 01:11:12;;;;;;;8.68;6.10;;;17.00;99.90;;;-144.05;89.20;56887.06;5000184;28;20040;-85
2023/08/24 01:14:19;;;;;;;7.85;5.95;;;16.70;99.90;;;-144.05;89.21;56904.06;4999486;28;20524;-84
2023/08/24 01:16:50;;;;;;;8.80;5.38;;;15.80;99.90;;;-144.05;89.48;56908.31;5017442;28;20030;-85
2023/08/24 01:19:43;;;;;;;8.35;5.53;;;15.70;99.90;;;-144.05;89.48;56916.81;4999103;28;20038;-85
2023/08/24 01:22:56;;;;;;;9.52;6.35;;;16.50;99.90;;;-144.05;89.63;56895.56;5017611;28;20034;-85
2023/08/24 01:25:51;;;;;;;9.68;6.40;;;16.60;99.90;;;-144.05;89.61;56878.56;4994431;28;20192;-82
2023/08/24 01:28:21;;;;;;;10.25;6.93;;;13.50;99.90;;;-144.05;89.51;56891.31;5017358;28;20036;-84
2023/08/24 01:30:48;;;;;;;7.70;6.80;;;;;;;-144.05;89.67;56889.19;5017996;28;20026;-86
2023/08/24 01:33:14;;;;;;;9.88;6.63;;;15.60;99.90;;;-144.05;89.64;56918.94;5000656;28;20040;-83
2023/08/24 01:35:41;;;;;;;9.80;6.55;;;15.50;99.90;;;-144.05;89.99;56895.56;5034651;28;20085;-84
2023/08/24 01:38:12;;;;;;;9.23;6.28;;;16.60;99.90;;;-144.05;89.91;56910.44;5036923;28;20022;-83
2023/08/24 01:41:11;;;;;;;9.63;6.75;;;16.40;99.90;;;-144.05;90.36;56916.81;5019998;28;20080;-82
2023/08/24 01:43:41;;;;;;;8.10;6.40;;;16.60;99.90;;;-144.05;90.22;56884.94;5027302;28;20025;-83
2023/08/24 01:46:11;;;;;;;7.57;5.75;;;15.50;99.90;;;-144.05;90.11;56908.31;5015957;28;20030;-83
2023/08/24 01:48:39;;;;;;;10.90;6.15;;;16.30;99.90;;;-144.05;90.11;56914.69;5016356;28;20022;-83
2023/08/24 01:51:06;;;;;;;9.50;6.15;;;;;;;-144.05;90.16;56895.56;4997512;28;20026;-84
2023/08/24 01:53:35;;;;;;;7.90;5.53;;;15.50;99.90;;;-144.05;90.24;56887.06;4997761;28;20100;-82
2023/08/24 01:56:08;;;;;;;8.65;5.07;;;;;;;-144.05;90.31;56889.19;5015601;28;20565;-83
2023/08/24 01:58:34;;;;;;;8.00;5.75;;;16.00;99.90;;;-144.05;90.27;56895.56;4997850;28;20022;-83
2023/08/24 02:01:00;;;;;;;9.05;6.05;;;16.60;99.90;;;-144.05;90.37;56889.19;5015579;28;20037;-82
2023/08/24 02:03:26;;;;;;;6.85;5.95;;;16.40;99.90;;;-144.05;90.40;56895.56;5015270;28;20026;-83
2023/08/24 02:05:51;;;;;;;9.30;6.05;;;13.50;99.90;;;-144.05;90.40;56921.06;5015097;28;20021;-81
2023/08/24 02:08:17;;;;;;;10.70;7.03;;;16.20;99.90;;;-144.05;90.70;56910.44;4997337;28;20497;-82
2023/08/24 02:10:43;;;;;;;9.38;6.13;;;16.70;99.90;;;-144.05;90.72;56895.56;5013222;28;20065;-83
2023/08/24 02:13:09;;;;;;;9.48;5.28;;;13.30;99.90;;;-144.05;90.87;56887.06;4997389;28;20121;-82
2023/08/24 02:15:36;;;;;;;8.40;5.57;;;13.40;99.90;;;-144.05;90.94;56895.56;4996576;28;20034;-84
2023/08/24 02:18:03;;;;;;;8.50;6.35;;;17.10;99.90;;;-144.05;91.16;56910.44;5014519;28;20440;-82
2023/08/24 02:20:29;;;;;;;8.43;6.40;;;13.60;99.90;;;-144.05;90.64;56876.44;5015289;28;20054;-82
2023/08/24 02:22:54;;;;;;;10.32;6.82;;;16.50;99.90;;;-144.05;90.55;56897.69;5014837;28;20109;-84
2023/08/24 02:25:20;;;;;;;7.65;6.03;;;16.30;99.90;;;-144.05;90.74;56904.06;5013189;28;20426;-84
2023/08/24 02:27:47;;;;;;;6.82;6.13;;;13.50;99.90;;;-144.05;90.53;56889.19;5016238;28;20026;-82
2023/08/24 02:30:13;;;;;;;7.35;5.47;;;15.30;99.90;;;-144.05;90.71;56908.31;5013982;28;20096;-83
2023/08/24 02:32:39;;;;;;;7.57;5.90;;;16.80;99.90;;;-144.05;90.75;56880.69;5012894;28;20490;-83
2023/08/24 02:35:07;;;;;;;10.05;6.97;;;15.20;99.90;;;-144.05;90.64;56895.56;5026305;28;20026;-82
2023/08/24 02:37:33;;;;;;;7.93;5.93;;;16.70;99.90;;;-144.05;90.68;56895.56;5028665;28;20026;-82
2023/08/24 02:39:59;;;;;;;11.00;7.25;;;13.10;99.90;;;-144.05;90.84;56904.06;5023067;28;20080;-84
2023/08/24 02:42:25;;;;;;;10.43;7.50;;;16.70;99.90;;;-144.05;90.82;56889.19;4996769;28;20393;-83
2023/08/24 02:44:50;;;;;;;11.00;7.38;;;15.30;99.90;;;-144.05;90.89;56912.56;5022622;28;20037;-82
2023/08/24 02:47:16;;;;;;;8.35;6.80;;;16.70;99.90;;;-144.05;91.12;56897.69;5024201;28;20033;-81
2023/08/24 02:49:42;;;;;;;10.50;7.45;;;15.70;99.90;;;-144.05;91.33;56882.81;5000173;28;20493;-82
2023/08/24 02:52:08;;;;;;;9.75;6.72;;;16.60;99.90;;;-144.05;91.38;56899.81;5014035;28;20038;-82
2023/08/24 02:54:34;;;;;;;8.40;6.60;;;15.20;99.90;;;-144.05;90.97;56901.94;4996452;28;20022;-82
2023/08/24 02:57:00;;;;;;;9.95;7.18;;;;;;;-144.05;91.21;56884.94;5012885;28;20112;-85
2023/08/24 02:59:26;;;;;;;7.80;6.47;;;16.70;99.90;;;-144.05;91.17;56897.69;5014177;28;20030;-84
2023/08/24 03:01:52;;;;;;;12.27;8.02;;;15.90;99.90;;;-144.05;91.04;56897.69;5013861;28;20026;-83
2023/08/24 03:04:19;;;;;;;13.57;7.75;;;13.50;99.90;;;-144.05;91.10;56897.69;4996258;28;20033;-82
2023/08/24 03:06:45;;;;;;;11.00;7.97;;;16.40;99.90;;;-144.05;91.09;56893.44;5015548;28;20026;-84
2023/08/24 03:09:11;;;;;;;9.98;7.38;;;13.30;99.90;;;-144.05;91.21;56906.19;5016923;28;20030;-85
2023/08/24 03:11:37;;;;;;;8.70;6.15;;;15.20;99.90;;;-144.05;91.14;56901.94;4999049;28;20021;-82
2023/08/24 03:14:02;;;;;;;9.65;6.97;;;15.10;99.90;;;-144.05;91.15;56910.44;5015652;28;20049;-82
2023/08/24 03:16:29;;;;;;;8.02;6.20;;;;;;;-144.05;91.38;56901.94;5015596;28;20022;-84
2023/08/24 03:18:54;;;;;;;13.18;6.30;;;16.60;99.90;;;-144.05;91.49;56889.19;5015087;28;20048;-84
2023/08/24 03:21:21;;;;;;;9.23;6.30;;;16.10;99.90;;;-144.05;91.59;56893.44;4997173;28;20497;-84
2023/08/24 03:23:47;;;;;;;8.25;6.13;;;;;;;-144.05;91.42;56908.31;5014477;28;20100;-83
2023/08/24 03:26:13;;;;;;;8.98;6.40;;;;;;;-144.05;90.79;56887.06;5014115;28;20026;-83
2023/08/24 03:28:39;;;;;;;7.15;5.85;;;15.20;99.90;;;-144.05;91.23;56899.81;4996947;28;20404;-83
2023/08/24 03:31:06;;;;;;;7.80;6.35;;;15.20;99.90;;;-144.05;91.37;56887.06;4996613;28;20026;-82
2023/08/24 03:33:34;;;;;;;7.88;6.30;;;15.20;99.90;;;-144.05;91.05;56912.56;5014351;28;20022;-86
2023/08/24 03:36:03;;;;;;;10.20;7.00;;;16.60;99.90;;;-144.05;89.31;56893.44;5014349;28;20022;-85
2023/08/24 03:38:29;;;;;;;10.10;6.63;;;;;;;-144.05;89.04;56904.06;4996139;28;20026;-84
2023/08/24 03:41:03;;;;;;;10.45;6.53;;;16.90;99.90;;;-144.05;89.03;56918.94;4996382;28;20087;-83
2023/08/24 03:43:35;;;;;;;9.75;6.38;;;16.90;99.90;;;-144.05;88.89;56895.56;4996729;28;20109;-82
2023/08/24 03:46:03;;;;;;;7.90;6.25;;;15.40;99.90;;;-144.05;88.96;56912.56;5014126;28;20056;-85
2023/08/24 03:48:30;;;;;;;12.65;7.00;;;;;;;-144.05;88.80;56918.94;5013836;28;20057;-85
2023/08/24 03:50:57;;;;;;;11.80;6.90;;;16.60;99.90;;;-144.05;88.86;56895.56;4995827;28;20056;-83
2023/08/24 03:53:25;;;;;;;9.05;6.43;;;16.90;99.90;;;-144.05;88.79;56893.44;5013370;28;20489;-83
2023/08/24 03:55:52;;;;;;;10.45;7.75;;;17.10;99.90;;;-144.05;89.52;56889.19;4995327;28;20045;-83
2023/08/24 03:58:18;;;;;;;10.27;6.85;;;17.00;99.90;;;-144.05;90.52;56929.53;4995671;28;20119;-82
2023/08/24 04:00:47;;;;;;;9.43;6.60;;;17.00;99.90;;;-144.05;90.77;56908.31;5012672;28;20021;-81
2023/08/24 04:03:13;;;;;;;10.35;6.63;;;16.20;99.90;;;-144.05;90.88;56876.44;4996592;28;20025;-84
2023/08/24 04:05:40;;;;;;;15.27;7.35;;;17.00;99.90;;;-144.05;90.04;56895.56;5013999;28;20053;-86
2023/08/24 04:08:07;;;;;;;10.18;6.57;;;17.30;99.90;;;-144.05;90.54;56918.94;5013653;28;20041;-84
2023/08/24 04:10:33;;;;;;;11.02;6.60;;;14.00;99.90;;;-144.05;90.68;56891.31;5013452;28;20489;-84
2023/08/24 04:12:59;;;;;;;11.73;7.15;;;;;;;-144.05;90.85;56870.06;5013762;28;20033;-85
2023/08/24 04:15:25;;;;;;;9.00;6.20;;;16.80;99.90;;;-144.05;90.62;56882.81;5006457;28;20033;-79
2023/08/24 04:17:51;;;;;;;8.40;6.28;;;16.70;99.90;;;-144.05;90.72;56908.31;5029397;28;20037;-78
2023/08/24 04:20:17;;;;;;;8.27;6.28;;;15.80;99.90;;;-144.05;90.66;56901.94;5016804;28;20053;-78
2023/08/24 04:22:43;;;;;;;9.02;6.57;;;16.90;99.90;;;-144.05;90.49;56923.19;5035214;28;20029;-80
2023/08/24 04:25:09;;;;;;;10.88;7.13;;;17.10;99.90;;;-144.05;90.40;56912.56;5035868;28;20038;-80
2023/08/24 04:27:37;;;;;;;10.07;6.32;;;17.30;99.90;;;-144.05;90.59;56882.81;5017908;28;20037;-81
2023/08/24 04:30:04;;;;;;;13.75;7.18;;;15.90;99.90;;;-144.05;90.66;56921.06;5024216;28;20057;-85
2023/08/24 04:32:32;;;;;;;10.93;6.53;;;17.50;99.90;;;-144.05;90.59;56893.44;5014628;28;20503;-83
2023/08/24 04:34:58;;;;;;;13.63;7.07;;;16.00;99.90;;;-144.05;90.42;56906.19;4997049;28;20040;-82
2023/08/24 04:37:24;;;;;;;7.18;6.10;;;17.50;99.90;;;-144.05;90.11;56931.66;4998761;28;20444;-85
2023/08/24 04:39:50;;;;;;;10.77;6.85;;;;;;;-144.05;89.81;56870.06;5000675;28;20145;-81
2023/08/24 04:42:16;;;;;;;9.40;6.57;;;16.10;99.90;;;-144.05;89.36;56916.81;5018192;28;20033;-82
2023/08/24 04:44:42;;;;;;;7.38;6.45;;;17.00;99.90;;;-144.05;89.46;56912.56;5018179;28;20523;-85
2023/08/24 04:47:08;;;;;;;10.88;6.60;;;17.60;99.90;;;-144.05;89.28;56925.28;5018556;28;20041;-83
2023/08/24 04:49:35;;;;;;;12.23;6.47;;;17.60;99.90;;;-144.05;89.48;56914.69;5017284;28;20041;-85
2023/08/24 04:52:01;;;;;;;8.93;6.28;;;17.60;99.90;;;-144.05;89.64;56895.56;5019562;28;20037;-85
2023/08/24 04:54:27;;;;;;;11.15;7.43;;;16.20;99.90;;;-144.05;89.71;56921.06;5017678;28;20505;-87
2023/08/24 04:56:53;;;;;;;9.80;5.40;;;17.70;99.90;;;-144.05;89.79;56910.44;5001305;28;20034;-86
2023/08/24 04:59:19;;;;;;;10.40;6.60;;;16.70;99.90;;;-144.05;89.56;56906.19;5019661;28;20037;-83
2023/08/24 05:01:45;;;;;;;8.65;6.22;;;16.30;99.90;;;-144.05;89.63;56880.69;5003926;28;20034;-87
2023/08/24 05:04:11;;;;;;;9.52;6.10;;;17.30;99.90;;;-144.05;88.80;56901.94;5002133;28;20643;-87
2023/08/24 05:06:37;;;;;;;6.82;5.97;;;16.30;99.90;;;-144.05;89.18;56891.31;5001138;28;20073;-85
2023/08/24 05:09:03;;;;;;;10.07;6.63;;;17.50;99.90;;;-144.05;89.55;56925.28;5017896;28;20037;-85
2023/08/24 05:11:29;;;;;;;9.70;6.32;;;14.40;99.90;;;-144.05;88.88;56921.06;5000621;28;20511;-84
2023/08/24 05:13:56;;;;;;;12.32;6.70;;;17.60;99.90;;;-144.05;89.61;56874.31;5000829;28;20026;-86
2023/08/24 05:16:22;;;;;;;10.75;6.65;;;;;;;-144.05;88.18;56908.31;5017505;28;20057;-87
2023/08/24 05:18:48;;;;;;;9.23;6.68;;;17.70;99.90;;;-144.05;89.32;56893.44;5000396;28;20029;-86
2023/08/24 05:21:14;;;;;;;10.07;7.75;;;17.30;99.90;;;-144.05;89.95;56916.81;5017370;28;20112;-85
2023/08/24 05:23:40;;;;;;;9.48;6.72;;;;;;;-144.05;89.21;56908.31;4999487;28;20032;-87
2023/08/24 05:26:07;;;;;;;12.90;7.68;;;;;;;-144.05;88.58;56908.31;5017330;28;20076;-86
2023/08/24 05:28:33;;;;;;;11.95;6.75;;;;;;;-144.05;88.37;56891.31;5017067;28;20033;-87
2023/08/24 05:31:00;;;;;;;14.98;8.85;;;;;;;-144.05;88.55;56933.78;5017782;28;20029;-83
2023/08/24 05:33:27;;;;;;;17.50;8.25;;;18.20;99.90;;;-144.05;88.53;56916.81;5017995;28;20048;-84
2023/08/24 05:35:53;;;;;;;14.02;8.20;;;14.60;99.90;;;-144.05;87.99;56908.31;5001024;28;20487;-83
2023/08/24 05:38:19;;;;;;;12.32;8.20;;;17.80;99.90;;;-144.05;86.46;56912.56;5000328;28;20092;-82
2023/08/24 05:40:49;;;;;;;10.57;7.07;;;18.40;99.90;;;-144.05;85.17;56929.53;5018713;28;20108;-84
2023/08/24 05:43:15;;;;;;;8.68;6.25;;;;;;;-144.05;83.92;56895.56;5018785;28;20067;-84
2023/08/24 05:45:44;;;;;;;8.00;5.90;;;18.00;99.90;;;-144.05;82.37;56927.41;5018569;28;20030;-84
2023/08/24 05:48:11;;;;;;;7.80;5.47;;;18.40;99.90;;;-144.05;81.47;56897.69;4999384;28;20054;-83
2023/08/24 05:50:42;;;;;;;9.38;5.28;;;15.20;99.90;;;-144.05;80.79;56904.06;5000806;28;20443;-84
2023/08/24 05:53:07;;;;;;;8.60;5.30;;;18.50;99.90;;;-144.05;80.84;56904.06;5001109;28;20485;-83
2023/08/24 05:55:33;;;;;;;7.95;5.65;;;18.90;99.90;;;-144.05;80.27;56921.06;5000838;28;20056;-82
2023/08/24 05:57:59;;;;;;;13.80;6.07;;;18.90;99.90;;;-144.05;79.60;56933.78;5018551;28;20053;-84
2023/08/24 06:00:26;;;;;;;11.30;5.50;;;19.20;99.90;;;-144.05;78.80;56908.31;5005530;28;20040;-86
2023/08/24 06:02:52;;;;;;;11.93;5.65;;;;;;;-144.05;77.61;56908.31;5022755;28;20080;-81
2023/08/24 06:05:18;;;;;;;9.07;5.53;;;15.60;99.90;;;-144.05;76.59;56931.66;5019960;28;20061;-83
2023/08/24 06:07:45;;;;;;;9.25;5.55;;;19.40;99.90;;;-144.05;76.44;56916.81;5020007;28;20033;-83
2023/08/24 06:10:12;;;;;;;10.55;4.75;;;18.90;99.90;;;-144.05;76.67;56925.28;5001294;28;20057;-84
2023/08/24 06:12:38;;;;;;;12.27;5.60;;;;;;;-144.05;78.16;56910.44;5018667;28;20113;-82
2023/08/24 06:15:09;;;;;;;10.05;5.35;;;19.10;99.90;;;-144.05;77.17;56923.19;5018840;28;20026;-83
2023/08/24 06:17:35;;;;;;;11.52;5.05;;;16.10;99.90;;;-144.05;77.42;56938.03;4999924;28;20030;-84
2023/08/24 06:20:04;;;;;;;9.30;5.00;;;18.90;99.90;;;-144.05;77.02;56925.28;5017916;28;20428;-83
2023/08/24 06:22:30;;;;;;;9.40;5.05;;;18.80;99.90;;;-144.05;75.48;56950.78;5018974;28;20176;-82
2023/08/24 06:24:59;;;;;;;10.40;5.00;;;19.20;99.90;;;-144.05;74.75;56944.41;5001625;28;20469;-83
2023/08/24 06:27:26;;;;;;;8.25;5.10;;;18.00;99.90;;;-144.05;74.26;56912.56;5017710;28;20018;-84
2023/08/24 06:29:52;;;;;;;8.85;4.70;;;19.10;99.90;;;-144.05;73.35;56944.41;5018788;28;20037;-85
2023/08/24 06:32:18;;;;;;;9.88;4.80;;;20.00;99.90;;;-144.05;73.08;56921.06;4999519;28;20397;-85
2023/08/24 06:34:44;;;;;;;12.48;6.03;;;18.40;99.90;;;-144.05;73.32;56927.41;5017594;28;20103;-84
2023/08/24 06:37:10;;;;;;;14.55;5.93;;;19.30;99.90;;;-144.05;73.52;56952.91;4999176;28;20116;-86
2023/08/24 06:39:36;;;;;;;6.63;4.80;;;18.60;99.90;;;-144.05;74.14;56910.44;4999135;28;20389;-84
2023/08/24 06:42:02;;;;;;;12.05;4.88;;;19.70;99.90;;;-144.05;74.51;56925.28;5017706;28;20044;-83
2023/08/24 06:44:28;;;;;;;8.45;4.85;;;19.90;99.90;;;-144.05;73.52;56955.03;4999124;28;20042;-86
2023/08/24 06:46:54;;;;;;;7.03;4.45;;;21.20;99.90;;;-144.05;72.43;56952.91;4999353;28;20036;-86
2023/08/24 06:49:20;;;;;;;8.48;4.50;;;21.40;99.90;;;-144.05;70.29;56963.53;5016887;28;20045;-85
2023/08/24 06:51:46;;;;;;;8.75;4.15;;;21.10;99.90;;;-144.05;70.60;56938.03;5017152;28;20030;-86
2023/08/24 06:54:12;;;;;;;7.10;4.32;;;19.80;99.90;;;-144.05;70.64;56959.28;5018145;28;20045;-83
2023/08/24 06:56:37;;;;;;;8.15;4.75;;;21.50;99.90;;;-144.05;71.18;56955.03;5015675;28;20477;-85
2023/08/24 06:59:03;;;;;;;10.98;4.82;;;19.70;99.90;;;-144.05;71.20;56944.41;5015761;28;20037;-82
2023/08/24 07:01:31;;;;;;;9.27;5.13;;;;;;;-144.05;71.20;56942.28;5017047;28;20030;-83
2023/08/24 07:03:57;;;;;;;14.10;6.78;;;21.40;99.90;;;-144.05;70.07;56940.16;5017503;28;20089;-85
2023/08/24 07:06:24;;;;;;;12.32;6.50;;;18.50;99.90;;;-144.05;70.07;56959.28;4999006;28;20131;-85
2023/08/24 07:08:50;;;;;;;8.55;5.40;;;;;;;-144.05;69.28;56963.53;4999407;28;20490;-83
2023/08/24 07:11:17;;;;;;;9.05;6.07;;;;;;;-144.05;67.14;56955.03;4999527;28;20036;-85
2023/08/24 07:13:43;;;;;;;15.43;6.93;;;23.10;99.90;;;-144.05;66.06;56976.28;5016304;28;20397;-86
2023/08/24 07:16:09;;;;;;;10.85;5.90;;;23.30;99.90;;;-144.05;63.18;57001.75;4999113;28;20033;-85
2023/08/24 07:18:35;;;;;;;10.35;6.18;;;20.30;99.90;;;-144.05;60.49;56976.28;4998592;28;20397;-85
2023/08/24 07:21:00;;;;;;;10.32;6.22;;;24.30;99.90;;;-144.05;59.96;57008.13;4998977;28;20025;-83
2023/08/24 07:23:26;;;;;;;11.98;6.40;;;24.20;99.90;;;-144.05;58.09;57010.25;5016683;28;20029;-85
2023/08/24 07:25:52;;;;;;;12.13;6.22;;;23.70;99.90;;;-144.05;57.91;57018.75;4999103;28;20030;-84
2023/08/24 07:28:18;;;;;;;10.82;5.97;;;24.20;99.90;;;-144.05;57.09;57023.00;4998149;28;20026;-84
2023/08/24 07:30:44;;;;;;;9.73;5.38;;;24.80;99.90;;;-144.05;56.32;57020.88;4998769;28;20030;-85
2023/08/24 07:33:10;;;;;;;10.95;5.35;;;23.70;99.90;;;-144.05;54.63;57027.25;5016588;28;20095;-85
2023/08/24 07:35:35;;;;;;;10.98;5.30;;;23.90;99.90;;;-144.05;54.44;57031.50;5000059;28;20429;-85
2023/08/24 07:38:04;;;;;;;8.85;4.70;;;24.10;99.90;;;-144.05;53.30;57050.63;5020631;28;20064;-84
2023/08/24 07:40:30;;;;;;;11.27;5.00;;;25.90;99.90;;;-144.05;53.37;57054.88;5026136;28;20026;-85
2023/08/24 07:42:56;;;;;;;10.40;5.22;;;25.50;99.90;;;-144.05;53.42;57044.25;5026364;28;20022;-84
2023/08/24 07:45:23;;;;;;;7.30;4.95;;;26.10;99.90;;;-144.05;54.44;57086.72;5026673;28;20029;-83
2023/08/24 07:47:49;;;;;;;8.80;5.43;;;22.70;99.90;;;-144.05;51.67;57044.25;5007537;28;20105;-83
2023/08/24 07:50:15;;;;;;;10.57;5.05;;;25.80;99.90;;;-144.05;51.62;57061.22;4999391;28;20034;-85
2023/08/24 07:52:42;;;;;;;9.20;5.30;;;26.10;99.90;;;-144.05;51.12;57086.72;5016058;28;20097;-83
2023/08/24 07:55:09;;;;;;;10.18;5.03;;;24.90;99.90;;;-144.05;50.81;57082.47;4998119;28;20049;-86
2023/08/24 07:57:37;;;;;;;10.10;4.07;;;25.20;99.90;;;-144.05;49.59;57086.72;5016257;28;20022;-83
2023/08/24 08:00:05;;;;;;;6.00;4.18;;;25.40;99.90;;;-144.05;49.29;57097.34;5014971;28;20034;-84
2023/08/24 08:02:32;;;;;;;9.15;4.22;;;23.80;99.90;;;-144.05;47.54;57103.72;5015653;28;20037;-84
2023/08/24 08:04:59;;;;;;;6.82;3.67;;;27.90;99.90;;;-144.05;47.67;57112.22;5014642;28;20029;-85
2023/08/24 08:07:28;;;;;;;5.72;3.10;;;26.20;99.90;;;-144.05;45.66;57114.34;5015666;28;20037;-86
2023/08/24 08:09:54;;;;;;;6.78;3.38;;;28.40;99.90;;;-144.05;45.33;57137.69;5015754;28;20057;-86
2023/08/24 08:12:20;;;;;;;8.02;3.40;;;;;;;-144.05;44.24;57146.19;5014258;28;20453;-84
2023/08/24 08:14:46;;;;;;;5.18;3.10;;;28.40;99.90;;;-144.05;43.59;57163.19;5017232;28;20029;-86
2023/08/24 08:17:12;;;;;;;5.72;2.97;;;28.30;99.90;;;-144.05;44.54;57139.81;4998098;28;20034;-83
2023/08/24 08:19:38;;;;;;;8.02;3.42;;;26.70;99.90;;;-144.05;42.96;57144.06;4998388;28;20149;-83
2023/08/24 08:22:05;;;;;;;5.68;2.97;;;26.80;99.90;;;-144.05;43.36;57154.69;5015898;28;20165;-84
2023/08/24 08:24:31;;;;;;;5.97;3.17;;;25.00;99.90;;;-144.05;43.00;57150.44;4997976;28;20045;-83
2023/08/24 08:26:56;;;;;;;7.35;3.05;;;27.00;99.90;;;-144.05;41.91;57156.81;5016118;28;20037;-84
2023/08/24 08:29:22;;;;;;;6.00;2.67;;;27.20;99.90;;;-144.05;41.99;57175.94;4999108;28;20038;-84
2023/08/24 08:31:48;;;;;;;6.95;3.00;;;29.00;99.90;;;-144.05;41.05;57148.31;4998431;28;20142;-84
2023/08/24 08:34:15;;;;;;;4.38;2.80;;;28.40;99.90;;;-144.05;41.44;57146.19;5015676;28;20033;-86
2023/08/24 08:36:41;;;;;;;8.10;3.30;;;29.50;99.90;;;-144.05;40.95;57161.06;4999068;28;20065;-86
2023/08/24 08:39:07;;;;;;;6.05;3.05;;;29.60;99.90;;;-144.05;40.98;57184.44;5016514;28;20022;-83
2023/08/24 08:41:45;;;;;;;6.63;3.35;;;27.40;99.90;;;-144.05;41.38;57161.06;5016964;28;20097;-85
2023/08/24 08:44:14;;;;;;;7.72;3.45;;;27.80;99.90;;;-144.05;41.55;57188.69;4998960;28;20034;-85
2023/08/24 08:46:44;;;;;;;5.07;2.70;;;27.00;99.90;;;-144.05;41.10;57205.66;4997898;28;20379;-83
2023/08/24 08:49:15;;;;;;;6.20;2.83;;;30.00;99.90;;;-144.05;40.98;57214.16;5015923;28;20030;-84
2023/08/24 08:51:42;;;;;;;4.30;2.17;;;28.20;99.90;;;-144.05;40.60;57218.41;5021869;28;20089;-86
2023/08/24 08:54:08;;;;;;;4.18;2.25;;;28.40;99.90;;;-144.05;40.83;57218.41;5019995;28;20041;-86
2023/08/24 08:56:35;;;;;;;7.28;3.58;;;30.00;99.90;;;-144.05;39.34;57226.91;5022551;28;20018;-85
2023/08/24 08:59:08;;;;;;;8.00;3.15;;;29.50;99.90;;;-144.05;39.63;57180.19;5023196;28;20034;-85
2023/08/24 09:01:34;;;;;;;6.55;2.78;;;27.50;99.90;;;-144.05;38.88;57226.91;5014762;28;20080;-85
2023/08/24 09:04:01;;;;;;;3.88;2.58;;;27.20;99.90;;;-144.05;39.17;57218.41;4997894;28;20030;-84
2023/08/24 09:06:28;;;;;;;4.05;2.60;;;;;;;-144.05;40.16;57214.16;4997738;28;20389;-84
2023/08/24 09:08:54;;;;;;;5.55;2.50;;;30.30;99.90;;;-144.05;38.50;57243.91;4997806;28;20026;-86
2023/08/24 09:11:23;;;;;;;6.85;2.92;;;;;;;-144.05;38.22;57209.91;5014986;28;20474;-84
2023/08/24 09:13:49;;;;;;;3.85;2.33;;;28.20;99.90;;;-144.05;38.60;57252.41;4998011;28;20037;-84
2023/08/24 09:16:17;;;;;;;5.85;2.42;;;;;;;-144.05;37.49;57222.66;5015979;28;20045;-82
2023/08/24 09:18:47;;;;;;;5.32;2.40;;;29.60;99.90;;;-144.05;37.51;57237.53;5016091;28;20405;-83
2023/08/24 09:21:15;;;;;;;3.75;2.40;;;30.00;99.90;;;-144.05;38.37;57231.16;5016964;28;20037;-85
2023/08/24 09:23:54;;;;;;;8.02;2.67;;;28.70;99.90;;;-144.05;37.86;57269.41;5016745;28;20030;-83
2023/08/24 09:26:37;;;;;;;4.65;2.78;;;28.90;99.90;;;-144.05;37.40;57256.66;5021428;28;20433;-85
2023/08/24 09:29:15;;;;;;;7.35;2.75;;;30.70;99.90;;;-144.05;36.72;57256.66;5021041;28;20037;-84
2023/08/24 09:31:46;;;;;;;6.07;2.58;;;28.70;99.90;;;-144.05;37.13;57271.53;5020591;28;20045;-85
2023/08/24 09:34:12;;;;;;;5.75;2.30;;;28.90;99.90;;;-144.05;37.25;57271.53;5019394;28;20117;-82
2023/08/24 09:36:39;;;;;;;5.25;2.30;;;27.80;99.90;;;-144.05;36.38;57271.53;5001591;28;20032;-84
2023/08/24 09:39:06;;;;;;;3.78;2.08;;;31.40;99.90;;;-144.05;36.55;57267.28;5018538;28;20109;-83
2023/08/24 09:41:45;;;;;;;6.47;2.70;;;29.40;99.90;;;-144.05;36.23;57280.03;5019128;28;20042;-83
2023/08/24 09:44:12;;;;;;;4.63;2.50;;;28.30;99.90;;;-144.05;36.25;57273.66;5000806;28;20037;-86
2023/08/24 09:46:40;;;;;;;6.75;2.83;;;27.80;99.90;;;-144.05;36.57;57267.28;5019073;28;20022;-84
2023/08/24 09:49:09;;;;;;;3.22;2.33;;;29.20;99.90;;;-144.05;36.89;57246.03;5001339;28;20042;-84
2023/08/24 09:51:38;;;;;;;3.70;2.42;;;31.00;99.90;;;-144.05;36.58;57271.53;5000830;28;20117;-84
2023/08/24 09:54:10;;;;;;;5.13;2.50;;;29.20;99.90;;;-144.05;36.02;57254.53;5018709;28;20137;-83
2023/08/24 09:56:40;;;;;;;8.48;2.70;;;29.40;99.90;;;-144.05;35.89;57280.03;5000817;28;20033;-83
2023/08/24 09:59:22;;;;;;;4.35;2.70;;;29.40;99.90;;;-144.05;35.86;57273.66;5018301;28;20034;-84
2023/08/24 10:01:50;;;;;;;5.70;3.00;;;31.10;99.90;;;-144.05;36.31;57309.75;5017946;28;20050;-83
2023/08/24 10:04:29;;;;;;;4.90;2.60;;;30.60;99.90;;;-144.05;36.54;57269.41;5000968;28;20116;-85
2023/08/24 10:07:14;;;;;;;5.45;2.50;;;28.90;99.90;;;-144.05;36.51;57265.16;5018516;28;20033;-82
2023/08/24 10:10:06;;;;;;;3.85;2.22;;;29.50;99.90;;;-144.05;36.81;57248.16;5000553;28;20112;-83
2023/08/24 10:12:43;;;;;;;5.07;2.45;;;29.50;99.90;;;-144.05;36.96;57260.91;5001122;28;20493;-82
2023/08/24 10:15:13;;;;;;;5.72;2.63;;;29.50;99.90;;;-144.05;37.18;57256.66;5019239;28;20034;-84